createdAt,value
2022-11-05T00:03:21.842Z,0
2022-11-05T00:09:12.546Z,0
2022-11-05T00:14:26.718Z,0
2022-11-05T00:19:59.735Z,0
2022-11-05T00:25:43.587Z,0
2022-11-05T00:31:20.567Z,0
2022-11-05T00:37:02.962Z,0
2022-11-05T00:42:21.754Z,0
2022-11-05T00:48:01.310Z,0
2022-11-05T00:53:30.893Z,0
2022-11-05T00:59:13.067Z,0
2022-11-05T01:04:18.895Z,0
2022-11-05T01:09:57.262Z,0
2022-11-05T01:15:46.972Z,0
2022-11-05T01:21:00.627Z,0
2022-11-05T01:26:31.690Z,0
2022-11-05T01:32:28.280Z,0
2022-11-05T01:37:48.911Z,0
2022-11-05T01:43:17.814Z,0
2022-11-05T01:49:05.387Z,0
2022-11-05T01:54:36.476Z,0
2022-11-05T02:00:01.281Z,0
2022-11-05T02:05:30.464Z,0
2022-11-05T02:11:01.865Z,0
2022-11-05T02:16:31.269Z,0
2022-11-05T02:21:59.158Z,0
2022-11-05T02:27:45.534Z,0
2022-11-05T02:33:16.863Z,0
2022-11-05T02:38:41.646Z,0
2022-11-05T02:44:26.757Z,0
2022-11-05T02:49:54.328Z,0
2022-11-05T02:55:26.918Z,0
2022-11-05T03:00:50.614Z,0
2022-11-05T03:06:30.570Z,0
2022-11-05T03:12:05.161Z,0
2022-11-05T03:17:21.174Z,0
2022-11-05T03:23:04.488Z,0
2022-11-05T03:28:39.544Z,0
2022-11-05T03:34:03.422Z,0
2022-11-05T03:39:32.877Z,0
2022-11-05T03:45:00.299Z,0
2022-11-05T03:50:58.036Z,0
2022-11-05T03:56:13.272Z,0
2022-11-05T04:01:51.074Z,0
2022-11-05T04:07:36.649Z,0
2022-11-05T04:13:02.361Z,0
2022-11-05T04:18:13.519Z,0
2022-11-05T04:23:52.909Z,0
2022-11-05T04:29:33.350Z,0
2022-11-05T04:35:04.779Z,0
2022-11-05T04:40:29.966Z,0
2022-11-05T04:46:22.253Z,0
2022-11-05T04:51:46.482Z,0
2022-11-05T04:57:25.461Z,0
2022-11-05T05:02:54.482Z,0
2022-11-05T05:08:32.504Z,0
2022-11-05T05:14:05.296Z,0
2022-11-05T05:19:27.102Z,0
2022-11-05T05:24:54.301Z,0
2022-11-05T05:30:39.605Z,0
2022-11-05T05:36:05.791Z,0
2022-11-05T05:41:49.200Z,0
2022-11-05T05:46:54.344Z,0
2022-11-05T05:52:25.646Z,0
2022-11-05T05:58:02.958Z,0
2022-11-05T06:03:55.754Z,0
2022-11-05T06:09:02.651Z,0
2022-11-05T06:15:02.296Z,0
2022-11-05T06:20:24.753Z,0
2022-11-05T06:26:06.215Z,2.4
2022-11-05T06:31:26.586Z,8.4
2022-11-05T06:37:08.309Z,0
2022-11-05T06:42:29.728Z,0
2022-11-05T06:48:08.131Z,0
2022-11-05T06:53:35.205Z,0
2022-11-05T06:59:04.877Z,0
2022-11-05T07:04:57.143Z,0
2022-11-05T07:10:10.639Z,0
2022-11-05T07:15:52.509Z,0
2022-11-05T07:21:29.314Z,0
2022-11-05T07:27:03.304Z,0
2022-11-05T07:32:17.606Z,0
2022-11-05T07:38:08.634Z,0
2022-11-05T07:43:18.100Z,0
2022-11-05T07:49:13.815Z,0
2022-11-05T07:54:31.198Z,0
2022-11-05T08:00:19.550Z,0
2022-11-05T08:05:39.873Z,0
2022-11-05T08:11:13.758Z,0
2022-11-05T08:16:51.767Z,0
2022-11-05T08:22:14.421Z,0
2022-11-05T08:28:02.319Z,0
2022-11-05T08:33:23.221Z,0
2022-11-05T08:39:12.911Z,0
2022-11-05T08:44:18.852Z,3.6
2022-11-05T08:50:08.441Z,3.6
2022-11-05T08:55:30.189Z,0
2022-11-05T09:01:06.217Z,3.6
2022-11-05T09:06:49.982Z,5.9
2022-11-05T09:12:19.096Z,9.6
2022-11-05T09:17:49.061Z,10.7
2022-11-05T09:23:33.447Z,9.6
2022-11-05T09:28:47.738Z,7.2
2022-11-05T09:34:44.811Z,8.4
2022-11-05T09:40:03.264Z,11.9
2022-11-05T09:45:58.545Z,11.9
2022-11-05T09:51:07.309Z,8.4
2022-11-05T09:57:04.582Z,7.2
2022-11-05T10:02:18.981Z,8.4
2022-11-05T10:08:03.625Z,8.4
2022-11-05T10:13:26.217Z,10.7
2022-11-05T10:19:19.905Z,8.4
2022-11-05T10:24:28.013Z,9.6
2022-11-05T10:30:21.353Z,10.7
2022-11-05T10:35:59.723Z,10.7
2022-11-05T10:41:12.688Z,10.7
2022-11-05T10:46:58.567Z,11.9
2022-11-05T10:52:33.770Z,14.4
2022-11-05T10:58:13.723Z,14.4
2022-11-05T11:03:36.719Z,13.2
2022-11-05T11:09:22.130Z,15.6
2022-11-05T11:14:51.247Z,13.2
2022-11-05T11:20:15.177Z,13.2
2022-11-05T11:26:08.862Z,10.7
2022-11-05T11:31:20.945Z,8.4
2022-11-05T11:37:15.318Z,14.4
2022-11-05T11:42:35.347Z,15.6
2022-11-05T11:48:14.505Z,16.8
2022-11-05T11:53:59.678Z,14.4
2022-11-05T11:59:18.939Z,15.6
2022-11-05T12:04:50.047Z,14.4
2022-11-05T12:10:38.805Z,14.4
2022-11-05T12:16:14.788Z,13.2
2022-11-05T12:21:55.330Z,16.8
2022-11-05T12:27:15.985Z,19.2
2022-11-05T12:32:49.771Z,18
2022-11-05T12:38:18.914Z,16.8
2022-11-05T12:43:58.379Z,15.6
2022-11-05T12:49:17.073Z,13.2
2022-11-05T12:54:48.237Z,11.9
2022-11-05T13:00:45.097Z,11.9
2022-11-05T13:06:11.787Z,11.9
2022-11-05T13:11:50.095Z,9.6
2022-11-05T13:17:27.830Z,7.2
2022-11-05T13:22:41.375Z,5.9
2022-11-05T13:28:23.278Z,7.2
2022-11-05T13:33:45.606Z,10.7
2022-11-05T13:39:29.253Z,14.4
2022-11-05T13:45:06.965Z,9.6
2022-11-05T13:50:32.851Z,10.7
2022-11-05T13:56:27.776Z,10.7
2022-11-05T14:01:45.878Z,11.9
2022-11-05T14:07:17.784Z,9.6
2022-11-05T14:13:05.424Z,9.6
2022-11-05T14:18:43.879Z,8.4
2022-11-05T14:29:51.535Z,9.6
2022-11-05T14:35:13.846Z,7.2
2022-11-05T14:40:59.168Z,7.2
2022-11-05T14:46:27.456Z,5.9
2022-11-05T14:51:54.835Z,7.2
2022-11-05T14:57:39.388Z,3.6
2022-11-05T15:02:54.022Z,0
2022-11-05T15:08:42.177Z,0
2022-11-05T15:14:09.212Z,0
2022-11-05T15:19:24.857Z,7.2
2022-11-05T15:25:06.605Z,7.2
2022-11-05T15:30:50.679Z,7.2
2022-11-05T15:36:08.682Z,7.2
2022-11-05T15:41:42.282Z,7.2
2022-11-05T15:47:27.899Z,7.2
2022-11-05T15:52:54.102Z,2.4
2022-11-05T15:58:37.149Z,0
2022-11-05T16:03:57.325Z,0
2022-11-05T16:09:48.626Z,0
2022-11-05T16:15:08.971Z,0
2022-11-05T16:20:38.018Z,0
2022-11-05T16:26:09.413Z,0
2022-11-05T16:31:57.414Z,0
2022-11-05T16:37:15.539Z,0
2022-11-05T16:42:47.049Z,5.9
2022-11-05T16:48:15.044Z,7.2
2022-11-05T16:53:52.574Z,9.6
2022-11-05T16:59:33.937Z,9.6
2022-11-05T17:04:55.929Z,10.7
2022-11-05T17:10:50.914Z,8.4
2022-11-05T17:16:01.978Z,9.6
2022-11-05T17:21:47.046Z,10.7
2022-11-05T17:27:08.690Z,11.9
2022-11-05T17:33:01.665Z,11.9
2022-11-05T17:38:24.359Z,7.2
2022-11-05T17:43:54.485Z,0
2022-11-05T17:49:38.775Z,0
2022-11-05T17:54:51.004Z,3.6
2022-11-05T18:00:24.554Z,7.2
2022-11-05T18:06:22.669Z,3.6
2022-11-05T18:11:37.812Z,0
2022-11-05T18:17:21.789Z,0
2022-11-05T18:22:38.610Z,0
2022-11-05T18:28:18.230Z,0
2022-11-05T18:33:44.994Z,0
2022-11-05T18:39:15.791Z,0
2022-11-05T18:45:06.278Z,0
2022-11-05T18:50:39.551Z,0
2022-11-05T18:56:08.516Z,0
2022-11-05T19:01:38.144Z,0
2022-11-05T19:07:01.611Z,0
2022-11-05T19:12:48.960Z,0
2022-11-05T19:17:55.351Z,0
2022-11-05T19:23:43.585Z,0
2022-11-05T19:28:58.601Z,0
2022-11-05T19:34:51.767Z,0
2022-11-05T19:40:22.185Z,0
2022-11-05T19:46:00.607Z,0
2022-11-05T19:51:30.214Z,0
2022-11-05T19:56:41.648Z,5.9
2022-11-05T20:02:16.337Z,8.4
2022-11-05T20:08:05.522Z,8.4
2022-11-05T20:13:27.936Z,7.2
2022-11-05T20:19:00.918Z,4.8
2022-11-05T20:24:48.397Z,2.4
2022-11-05T20:30:14.928Z,0
2022-11-05T20:35:47.693Z,0
2022-11-05T20:41:29.050Z,0
2022-11-05T20:46:50.017Z,0
2022-11-05T20:52:32.700Z,0
2022-11-05T20:57:59.910Z,0
2022-11-05T21:03:33.248Z,0
2022-11-05T21:08:52.990Z,0
2022-11-05T21:14:36.028Z,4.8
2022-11-05T21:19:52.538Z,5.9
2022-11-05T21:25:34.080Z,3.6
2022-11-05T21:31:06.406Z,3.6
2022-11-05T21:36:30.159Z,7.2
2022-11-05T21:42:28.551Z,3.6
2022-11-05T21:47:36.664Z,3.6
2022-11-05T21:53:28.290Z,7.2
2022-11-05T21:59:05.977Z,8.4
2022-11-05T22:04:33.130Z,7.2
2022-11-05T22:10:14.796Z,8.4
2022-11-05T22:15:42.246Z,7.2
2022-11-05T22:20:59.973Z,7.2
2022-11-05T22:26:42.902Z,7.2
2022-11-05T22:32:06.181Z,4.8
2022-11-05T22:37:36.942Z,5.9
2022-11-05T22:43:28.808Z,7.2
2022-11-05T22:48:45.841Z,5.9
2022-11-05T22:54:29.027Z,0
2022-11-05T22:59:48.410Z,0
2022-11-05T23:05:32.780Z,0
2022-11-05T23:10:54.935Z,0
2022-11-05T23:16:40.487Z,0
2022-11-05T23:22:03.933Z,0
2022-11-05T23:27:23.783Z,0
2022-11-05T23:33:11.052Z,0
2022-11-05T23:38:41.027Z,0
2022-11-05T23:44:23.465Z,0
2022-11-05T23:49:49.752Z,3.6
2022-11-05T23:55:07.568Z,2.4
